Time;durP1;ratioP1;P1;durP2;ratioP2;P2;SDS_P1;SDS_P2;PMS_P1;PMS_P2;Temp;Humidity;BMP_temperature;BMP_pressure;BME280_temperature;BME280_humidity;BME280_pressure;Samples;Min_cycle;Max_cycle;Signal;HPM_P1;HPM_P2
2024/01/26 00:01:14;;;;;;;4.97;3.58;;;;;;;9.37;80.83;97654.59;5036320;28;20045;-80
2024/01/26 00:03:42;;;;;;;8.48;4.28;;;;;;;9.35;80.36;97661.72;5036047;28;20100;-81
2024/01/26 00:06:10;;;;;;;6.93;4.00;;;;;;;9.33;80.85;97662.84;5044062;28;20045;-80
2024/01/26 00:08:37;;;;;;;5.53;3.70;;;;;;;9.31;81.66;97657.78;5037268;28;20046;-80
2024/01/26 00:11:06;;;;;;;9.35;3.17;;;;;;;9.30;81.24;97658.75;5035985;28;20140;-80
2024/01/26 00:13:34;;;;;;;3.88;2.80;;;;;;;9.29;81.53;97667.53;5035537;28;20075;-80
2024/01/26 00:16:01;;;;;;;2.95;2.25;;;;;;;9.27;81.40;97670.28;5035628;28;20152;-80
2024/01/26 00:18:29;;;;;;;2.78;2.58;;;;;;;9.27;81.69;97659.03;5035489;28;20491;-80
2024/01/26 00:20:56;;;;;;;4.60;2.20;;;;;;;9.23;80.99;97666.34;5035517;28;20434;-80
2024/01/26 00:23:24;;;;;;;5.45;2.88;;;;;;;9.19;80.87;97666.78;5035453;28;20052;-80
2024/01/26 00:25:51;;;;;;;3.65;2.47;;;;;;;9.15;80.90;97657.63;5035357;28;20450;-80
2024/01/26 00:28:20;;;;;;;4.28;3.05;;;;;;;9.12;81.10;97660.50;5035222;28;20061;-80
2024/01/26 00:30:48;;;;;;;2.70;2.45;;;;;;;9.11;81.67;97664.91;5035223;28;20137;-80
2024/01/26 00:33:15;;;;;;;4.60;2.97;;;;;;;9.12;81.66;97655.28;5034829;28;20045;-80
2024/01/26 00:35:43;;;;;;;3.58;2.45;;;;;;;9.15;82.00;97655.84;5035251;28;20132;-80
2024/01/26 00:38:10;;;;;;;4.25;2.42;;;;;;;9.18;82.04;97665.13;5035217;28;20128;-80
2024/01/26 00:40:38;;;;;;;4.50;3.40;;;;;;;9.16;81.44;97652.28;5035064;28;20045;-80
2024/01/26 00:43:06;;;;;;;3.25;2.50;;;;;;;9.15;81.51;97657.63;5034700;28;20136;-80
2024/01/26 00:45:35;;;;;;;4.85;2.72;;;;;;;9.15;81.82;97655.03;5034864;28;20049;-80
2024/01/26 00:48:02;;;;;;;4.75;2.47;;;;;;;9.15;81.98;97655.84;5034739;28;20425;-80
2024/01/26 00:50:30;;;;;;;3.13;2.25;;;;;;;9.16;82.34;97652.28;5034892;28;20053;-80
2024/01/26 00:52:58;;;;;;;3.65;2.47;;;;;;;9.20;82.81;97648.38;5034781;28;20132;-80
2024/01/26 00:55:29;;;;;;;3.55;2.58;;;;;;;9.23;82.28;97652.50;5034534;28;20055;-80
2024/01/26 00:57:56;;;;;;;3.15;2.40;;;;;;;9.23;81.69;97649.91;5035038;28;20498;-80
2024/01/26 01:00:25;;;;;;;3.45;2.00;;;;;;;9.22;81.83;97656.06;5034557;28;20577;-80
2024/01/26 01:02:54;;;;;;;2.05;1.88;;;;;;;9.24;82.80;97657.53;5034495;28;20051;-80
2024/01/26 01:05:22;;;;;;;2.83;2.05;;;;;;;9.26;82.23;97663.44;5034878;28;20057;-80
2024/01/26 01:07:49;;;;;;;2.50;1.90;;;;;;;9.28;82.21;97671.09;5034630;28;20045;-80
2024/01/26 01:10:17;;;;;;;1.50;1.40;;;;;;;9.29;82.01;97675.31;5034346;28;20045;-80
2024/01/26 01:12:45;;;;;;;1.63;1.38;;;;;;;9.28;81.84;97676.31;5033993;28;20104;-80
2024/01/26 01:15:12;;;;;;;2.60;1.42;;;;;;;9.26;82.35;97684.25;5034596;28;20049;-80
2024/01/26 01:17:40;;;;;;;2.00;1.42;;;;;;;9.27;82.22;97687.66;5034297;28;20049;-80
2024/01/26 01:20:10;;;;;;;2.13;1.40;;;;;;;9.26;82.29;97684.25;5034178;28;20085;-80
2024/01/26 01:22:41;;;;;;;4.53;2.35;;;;;;;9.25;82.45;97687.03;5034206;28;20080;-80
2024/01/26 01:25:11;;;;;;;1.38;1.27;;;;;;;9.25;82.38;97687.84;5033988;28;20132;-80
2024/01/26 01:27:39;;;;;;;2.13;1.58;;;;;;;9.27;82.56;97690.28;5034219;28;20521;-80
2024/01/26 01:30:08;;;;;;;1.40;1.30;;;;;;;9.28;82.70;97686.72;5034185;28;20499;-80
2024/01/26 01:32:36;;;;;;;1.80;1.30;;;;;;;9.30;82.40;97689.19;5033896;28;20057;-80
2024/01/26 01:35:05;;;;;;;2.10;1.77;;;;;;;9.30;82.22;97684.78;5033815;28;20053;-80
2024/01/26 01:37:34;;;;;;;4.32;1.77;;;;;;;9.31;82.78;97696.84;5034089;28;20049;-81
2024/01/26 01:40:01;;;;;;;1.92;1.63;;;;;;;9.33;82.94;97694.91;5033803;28;20049;-80
2024/01/26 01:42:29;;;;;;;1.70;1.60;;;;;;;9.37;83.45;97685.03;5033670;28;20529;-80
2024/01/26 01:44:57;;;;;;;2.15;1.67;;;;;;;9.39;83.05;97694.31;5034021;28;20056;-80
2024/01/26 01:47:24;;;;;;;2.33;1.92;;;;;;;9.42;82.82;97688.00;5033738;28;20057;-80
2024/01/26 01:49:52;;;;;;;3.80;2.10;;;;;;;9.40;82.75;97685.56;5033469;28;20569;-80
2024/01/26 01:52:19;;;;;;;3.25;1.95;;;;;;;9.40;83.04;97682.97;5033571;28;20199;-80
2024/01/26 01:54:50;;;;;;;2.25;2.05;;;;;;;9.43;83.11;97685.25;5033524;28;20080;-80
2024/01/26 01:57:23;;;;;;;2.75;1.92;;;;;;;9.43;82.77;97689.66;5033522;28;20511;-80
2024/01/26 01:59:50;;;;;;;2.38;2.15;;;;;;;9.43;82.73;97684.44;5033645;28;20051;-80
2024/01/26 02:02:19;;;;;;;2.67;2.17;;;;;;;9.44;83.34;97666.03;5034648;28;20533;-79
2024/01/26 02:04:46;;;;;;;2.90;2.45;;;;;;;9.44;83.57;97676.47;5034177;28;20124;-80
2024/01/26 02:07:15;;;;;;;3.13;2.80;;;;;;;9.43;83.37;97680.03;5032959;28;20053;-80
2024/01/26 02:09:42;;;;;;;4.28;2.40;;;;;;;9.40;83.34;97669.94;5032905;28;20046;-80
2024/01/26 02:12:11;;;;;;;3.72;2.85;;;;;;;9.40;83.62;97680.34;5034021;28;20084;-81
2024/01/26 02:14:39;;;;;;;4.20;2.65;;;;;;;9.42;83.61;97677.56;5033043;28;20050;-81
2024/01/26 02:17:06;;;;;;;4.32;3.15;;;;;;;9.43;83.59;97667.03;5033123;28;20045;-80
2024/01/26 02:19:34;;;;;;;3.67;2.80;;;;;;;9.43;83.34;97664.41;5033033;28;20077;-79
2024/01/26 02:22:02;;;;;;;3.13;2.83;;;;;;;9.42;83.47;97661.94;5033132;28;20057;-80
2024/01/26 02:24:30;;;;;;;5.43;3.70;;;;;;;9.40;83.33;97675.16;5040071;28;20110;-79
2024/01/26 02:26:58;;;;;;;3.97;3.13;;;;;;;9.39;83.72;97673.50;5034173;28;20057;-80
2024/01/26 02:29:25;;;;;;;5.15;3.53;;;;;;;9.38;83.92;97658.84;5033084;28;20478;-80
2024/01/26 02:31:53;;;;;;;3.90;3.50;;;;;;;9.40;84.23;97669.94;5033074;28;20055;-81
2024/01/26 02:34:21;;;;;;;4.18;3.53;;;;;;;9.40;84.24;97669.94;5032781;28;20396;-80
2024/01/26 02:36:49;;;;;;;4.75;3.40;;;;;;;9.40;84.25;97675.16;5032735;28;20498;-80
2024/01/26 02:39:16;;;;;;;4.82;3.65;;;;;;;9.38;84.11;97673.63;5032789;28;20067;-81
2024/01/26 02:41:45;;;;;;;4.20;3.53;;;;;;;9.36;84.05;97679.00;5032539;28;20103;-80
2024/01/26 02:44:13;;;;;;;3.97;3.30;;;;;;;9.39;84.39;97683.09;5039112;28;20057;-79
2024/01/26 02:46:41;;;;;;;3.97;3.67;;;;;;;9.39;84.27;97676.09;5049477;28;20057;-80
2024/01/26 02:49:09;;;;;;;4.65;3.70;;;;;;;9.40;84.07;97679.50;5047092;28;20049;-80
2024/01/26 02:51:36;;;;;;;4.30;3.55;;;;;;;9.39;83.76;97678.69;5034426;28;20069;-80
2024/01/26 02:54:04;;;;;;;6.53;3.80;;;;;;;9.41;83.96;97681.16;5033102;28;20115;-80
2024/01/26 02:56:32;;;;;;;5.75;3.70;;;;;;;9.39;84.04;97683.91;5032906;28;20133;-80
2024/01/26 02:59:01;;;;;;;3.35;3.05;;;;;;;9.38;84.11;97687.50;5032502;28;20045;-80
2024/01/26 03:01:28;;;;;;;4.93;2.78;;;;;;;9.38;84.02;97687.50;5032535;28;20081;-81
2024/01/26 03:03:56;;;;;;;3.50;3.20;;;;;;;9.38;83.84;97686.66;5032437;28;20057;-80
2024/01/26 03:06:23;;;;;;;3.70;2.53;;;;;;;9.36;83.49;97693.78;5033033;28;20519;-80
2024/01/26 03:08:51;;;;;;;3.80;2.42;;;;;;;9.31;83.50;97694.22;5033011;28;20099;-80
2024/01/26 03:11:19;;;;;;;2.90;2.55;;;;;;;9.30;83.62;97695.22;5032005;28;20049;-80
2024/01/26 03:13:46;;;;;;;2.67;2.47;;;;;;;9.30;83.41;97697.81;5032224;28;20091;-81
2024/01/26 03:16:15;;;;;;;3.78;3.00;;;;;;;9.33;83.99;97700.09;5032480;28;20073;-80
2024/01/26 03:18:43;;;;;;;2.63;2.30;;;;;;;9.36;84.18;97701.59;5032106;28;20144;-81
2024/01/26 03:21:10;;;;;;;3.05;2.28;;;;;;;9.39;84.26;97698.72;5032147;28;20049;-81
2024/01/26 03:23:38;;;;;;;2.13;1.92;;;;;;;9.37;83.77;97700.66;5031856;28;20057;-80
2024/01/26 03:26:05;;;;;;;2.42;2.20;;;;;;;9.35;83.61;97708.59;5031957;28;20495;-81
2024/01/26 03:28:33;;;;;;;3.28;2.25;;;;;;;9.35;83.57;97716.41;5032217;28;20084;-80
2024/01/26 03:31:00;;;;;;;2.35;2.05;;;;;;;9.35;83.20;97713.81;5032104;28;20059;-81
2024/01/26 03:33:29;;;;;;;3.20;1.98;;;;;;;9.34;83.15;97717.38;5031757;28;20057;-81
2024/01/26 03:35:57;;;;;;;2.00;1.80;;;;;;;9.34;83.24;97712.19;5032076;28;20057;-80
2024/01/26 03:38:25;;;;;;;2.35;1.95;;;;;;;9.36;83.00;97710.25;5032070;28;20050;-81
2024/01/26 03:40:52;;;;;;;3.60;1.88;;;;;;;9.37;82.89;97708.47;5032258;28;20081;-80
2024/01/26 03:43:20;;;;;;;2.30;1.48;;;;;;;9.37;83.44;97709.28;5031939;28;20083;-81
2024/01/26 03:45:47;;;;;;;2.55;1.75;;;;;;;9.39;83.37;97709.94;5032292;28;20050;-80
2024/01/26 03:48:15;;;;;;;2.75;1.73;;;;;;;9.38;82.80;97702.28;5032042;28;20045;-81
2024/01/26 03:50:44;;;;;;;2.13;1.65;;;;;;;9.39;83.15;97706.53;5031757;28;20041;-81
2024/01/26 03:53:11;;;;;;;1.40;1.30;;;;;;;9.42;83.44;97696.66;5031510;28;20049;-80
2024/01/26 03:55:39;;;;;;;2.55;1.65;;;;;;;9.46;83.80;97694.56;5032319;28;20064;-81
2024/01/26 03:58:06;;;;;;;1.13;1.02;;;;;;;9.48;83.70;97708.25;5032004;28;20460;-80
2024/01/26 04:00:34;;;;;;;1.35;1.25;;;;;;;9.49;83.53;97702.91;5031849;28;20079;-80
2024/01/26 04:03:02;;;;;;;2.28;1.50;;;;;;;9.48;83.16;97703.84;5032067;28;20128;-80
2024/01/26 04:05:29;;;;;;;1.45;1.35;;;;;;;9.48;83.27;97693.44;5032147;28;20052;-80
2024/01/26 04:07:58;;;;;;;1.63;1.20;;;;;;;9.49;83.22;97694.28;5031765;28;20054;-80
2024/01/26 04:10:26;;;;;;;2.25;1.35;;;;;;;9.47;82.24;97698.81;5063343;23;20098;-80
2024/01/26 04:12:54;;;;;;;1.33;1.23;;;;;;;9.46;82.81;97700.56;5056170;28;20483;-82
2024/01/26 04:15:22;;;;;;;0.98;0.98;;;;;;;9.48;83.43;97709.06;5054012;28;20099;-82
2024/01/26 04:17:50;;;;;;;1.83;1.25;;;;;;;9.52;83.62;97708.78;5053968;28;20049;-82
2024/01/26 04:20:18;;;;;;;1.25;1.15;;;;;;;9.55;83.44;97703.25;5055096;28;20128;-81
2024/01/26 04:22:46;;;;;;;1.10;1.00;;;;;;;9.56;82.66;97707.53;5054575;28;20089;-81
2024/01/26 04:25:15;;;;;;;1.00;1.00;;;;;;;9.54;81.30;97706.84;5054303;28;20067;-82
2024/01/26 04:27:43;;;;;;;2.13;1.33;;;;;;;9.52;81.08;97696.56;5054346;28;20092;-81
2024/01/26 04:30:12;;;;;;;1.35;1.25;;;;;;;9.51;80.39;97694.94;5053803;28;20055;-82
2024/01/26 04:32:40;;;;;;;2.65;2.05;;;;;;;9.51;80.09;97691.50;5057084;28;20499;-82
2024/01/26 04:35:08;;;;;;;2.92;2.30;;;;;;;9.48;80.09;97698.63;5057669;28;20045;-82
2024/01/26 04:37:36;;;;;;;2.83;2.45;;;;;;;9.47;79.73;97697.00;5057986;28;20049;-82
2024/01/26 04:40:06;;;;;;;3.22;2.40;;;;;;;9.46;79.59;97700.56;5057464;28;20103;-82
2024/01/26 04:42:35;;;;;;;2.58;2.20;;;;;;;9.44;79.35;97692.09;5057562;28;20052;-82
2024/01/26 04:45:03;;;;;;;2.67;2.33;;;;;;;9.42;79.52;97688.84;5060333;28;20422;-82
2024/01/26 04:47:31;;;;;;;2.80;2.05;;;;;;;9.41;80.06;97696.78;5079135;28;20048;-82
2024/01/26 04:49:59;;;;;;;5.78;3.72;;;;;;;9.40;79.84;97697.72;5078185;28;20028;-82
2024/01/26 04:52:28;;;;;;;7.53;3.78;;;;;;;9.38;79.58;97697.91;5078494;28;20068;-82
2024/01/26 04:54:56;;;;;;;6.13;3.88;;;;;;;9.38;79.76;97691.84;5073067;28;20122;-82
2024/01/26 04:57:24;;;;;;;7.93;5.07;;;;;;;9.35;79.50;97687.75;5060961;28;20049;-82
2024/01/26 04:59:54;;;;;;;5.55;3.60;;;;;;;9.34;79.51;97688.75;5060404;28;20107;-82
2024/01/26 05:02:22;;;;;;;5.20;3.63;;;;;;;9.38;79.50;97691.84;5077729;28;20060;-82
2024/01/26 05:04:49;;;;;;;8.43;4.65;;;;;;;9.37;79.01;97685.84;5077088;28;20056;-82
2024/01/26 05:07:17;;;;;;;6.65;4.22;;;;;;;9.36;79.06;97692.03;5072680;28;20418;-82
2024/01/26 05:09:45;;;;;;;4.75;2.67;;;;;;;9.37;78.99;97685.03;5062191;28;20080;-82
2024/01/26 05:12:16;;;;;;;3.03;1.83;;;;;;;9.36;78.75;97689.41;5059192;28;20072;-82
2024/01/26 05:14:45;;;;;;;2.17;1.40;;;;;;;9.36;78.43;97699.84;5058489;28;20045;-82
2024/01/26 05:17:14;;;;;;;3.20;2.22;;;;;;;9.36;78.80;97694.63;5057379;28;20060;-82
2024/01/26 05:19:42;;;;;;;3.05;2.03;;;;;;;9.34;78.80;97695.75;5056414;28;20510;-82
2024/01/26 05:22:10;;;;;;;4.18;2.60;;;;;;;9.33;78.91;97697.50;5057455;28;20053;-81
2024/01/26 05:24:38;;;;;;;2.92;2.22;;;;;;;9.32;79.20;97693.28;5057392;28;20102;-82
2024/01/26 05:27:07;;;;;;;3.58;1.90;;;;;;;9.36;80.51;97699.84;5057701;28;20068;-81
2024/01/26 05:29:35;;;;;;;2.28;2.08;;;;;;;9.38;81.05;97700.50;5056675;28;20051;-82
2024/01/26 05:32:04;;;;;;;1.73;1.48;;;;;;;9.41;81.04;97702.00;5057012;28;20111;-82
2024/01/26 05:34:33;;;;;;;2.60;1.38;;;;;;;9.40;80.19;97701.19;5056220;28;20103;-81
2024/01/26 05:37:01;;;;;;;2.80;1.50;;;;;;;9.43;80.39;97698.28;5056096;28;20063;-82
2024/01/26 05:39:29;;;;;;;1.60;1.20;;;;;;;9.43;79.41;97685.25;5056570;28;20528;-82
2024/01/26 05:41:57;;;;;;;3.90;1.20;;;;;;;9.45;78.48;97683.31;5056157;28;20072;-82
2024/01/26 05:44:25;;;;;;;1.27;1.05;;;;;;;9.46;78.02;97686.75;5055735;28;20056;-82
2024/01/26 05:46:53;;;;;;;2.90;2.05;;;;;;;9.45;78.17;97685.13;5056190;28;20163;-82
2024/01/26 05:49:23;;;;;;;2.42;1.88;;;;;;;9.46;77.81;97689.34;5055761;28;20045;-82
2024/01/26 05:51:53;;;;;;;7.32;1.92;;;;;;;9.46;76.95;97690.16;5055399;28;20072;-82
2024/01/26 05:54:21;;;;;;;2.58;1.75;;;;;;;9.45;77.22;97698.94;5055657;28;20049;-82
2024/01/26 05:56:49;;;;;;;2.40;1.40;;;;;;;9.44;77.05;97696.47;5055365;28;20060;-82
2024/01/26 05:59:17;;;;;;;0.65;0.65;;;;;;;9.44;76.94;97691.28;5055814;28;20052;-82
2024/01/26 06:01:45;;;;;;;2.08;1.40;;;;;;;9.42;76.74;97688.84;5055080;28;20049;-81
2024/01/26 06:04:13;;;;;;;1.88;1.20;;;;;;;9.41;77.91;97679.38;5055687;28;20056;-82
2024/01/26 06:06:41;;;;;;;1.15;1.00;;;;;;;9.42;77.97;97678.41;5055535;28;20052;-82
2024/01/26 06:09:10;;;;;;;1.83;1.00;;;;;;;9.43;77.70;97667.03;5055495;28;20502;-81
2024/01/26 06:11:42;;;;;;;2.75;1.00;;;;;;;9.44;76.79;97675.66;5055044;28;20052;-83
2024/01/26 06:14:10;;;;;;;1.93;1.30;;;;;;;9.47;77.25;97670.97;5055103;28;20506;-81
2024/01/26 06:16:38;;;;;;;1.30;1.10;;;;;;;9.48;77.06;97667.38;5055607;28;20332;-82
2024/01/26 06:19:05;;;;;;;2.67;1.25;;;;;;;9.50;76.98;97667.25;5055222;28;20052;-82
2024/01/26 06:21:34;;;;;;;1.13;1.00;;;;;;;9.54;76.54;97668.59;5058732;28;20056;-82
2024/01/26 06:24:02;;;;;;;1.02;0.98;;;;;;;9.55;77.44;97664.19;5056852;28;20056;-81
2024/01/26 06:26:32;;;;;;;2.05;0.88;;;;;;;9.56;78.51;97671.06;5055857;28;20067;-81
2024/01/26 06:29:00;;;;;;;1.30;0.82;;;;;;;9.59;78.13;97668.94;5055994;28;20049;-81
2024/01/26 06:31:27;;;;;;;2.10;0.93;;;;;;;9.61;77.43;97668.81;5055204;28;20075;-82
2024/01/26 06:33:56;;;;;;;1.42;1.17;;;;;;;9.61;77.27;97661.81;5054932;28;20053;-82
2024/01/26 06:36:24;;;;;;;1.83;0.85;;;;;;;9.62;76.66;97665.22;5055032;28;20057;-82
2024/01/26 06:38:51;;;;;;;1.98;0.60;;;;;;;9.62;75.76;97671.28;5054555;28;20048;-81
2024/01/26 06:41:19;;;;;;;1.25;0.90;;;;;;;9.64;76.38;97660.69;5054820;28;20056;-82
2024/01/26 06:43:51;;;;;;;0.90;0.70;;;;;;;9.64;76.19;97665.91;5054699;28;20053;-82
2024/01/26 06:46:22;;;;;;;1.67;0.60;;;;;;;9.66;76.48;97669.16;5054611;28;20152;-82
2024/01/26 06:48:50;;;;;;;0.98;0.60;;;;;;;9.68;77.66;97670.66;5054847;28;20080;-82
2024/01/26 06:51:18;;;;;;;1.02;0.85;;;;;;;9.72;78.86;97673.78;5055195;28;20048;-82
2024/01/26 06:53:46;;;;;;;1.17;0.68;;;;;;;9.76;79.24;97676.94;5054464;28;20101;-81
2024/01/26 06:56:14;;;;;;;0.65;0.65;;;;;;;9.78;79.79;97682.81;5055017;28;20057;-81
2024/01/26 06:58:43;;;;;;;0.93;0.70;;;;;;;9.78;79.68;97673.19;5054625;28;20482;-81
2024/01/26 07:01:12;;;;;;;2.15;0.57;;;;;;;9.79;80.30;97674.81;5055612;28;20049;-82
2024/01/26 07:03:40;;;;;;;0.85;0.70;;;;;;;9.77;79.65;97681.97;5055159;28;20041;-82
2024/01/26 07:06:08;;;;;;;1.65;0.80;;;;;;;9.78;78.85;97673.19;5055031;28;20048;-82
2024/01/26 07:08:36;;;;;;;1.25;0.70;;;;;;;9.79;78.13;97674.00;5053930;28;20144;-82
2024/01/26 07:11:10;;;;;;;1.73;0.80;;;;;;;9.79;78.57;97672.22;5053963;28;20057;-82
2024/01/26 07:13:38;;;;;;;1.08;0.88;;;;;;;9.79;77.97;97668.78;5054259;28;20064;-82
2024/01/26 07:16:06;;;;;;;1.88;0.90;;;;;;;9.80;78.37;97666.06;5054045;28;20578;-82
2024/01/26 07:18:36;;;;;;;1.92;0.70;;;;;;;9.84;79.39;97658.75;5053810;28;20049;-82
2024/01/26 07:21:07;;;;;;;1.95;0.70;;;;;;;9.88;78.37;97647.03;5056463;28;20049;-82
2024/01/26 07:23:35;;;;;;;2.33;0.93;;;;;;;9.88;77.96;97647.88;5056535;28;20055;-82
2024/01/26 07:26:04;;;;;;;1.67;1.00;;;;;;;9.92;78.01;97645.78;5058536;28;20049;-81
2024/01/26 07:28:32;;;;;;;1.92;0.80;;;;;;;9.95;79.24;97647.25;5059226;28;20045;-82
2024/01/26 07:31:00;;;;;;;0.52;0.52;;;;;;;9.97;79.66;97656.56;5055662;28;20188;-82
2024/01/26 07:33:28;;;;;;;0.55;0.55;;;;;;;9.96;77.85;97649.72;5059368;28;20045;-82
2024/01/26 07:35:57;;;;;;;1.73;0.75;;;;;;;9.98;78.50;97652.19;5057320;28;20078;-82
2024/01/26 07:38:25;;;;;;;1.48;0.70;;;;;;;9.97;77.99;97647.91;5055989;28;20136;-82
2024/01/26 07:40:53;;;;;;;1.77;0.80;;;;;;;9.98;77.92;97641.75;5055556;28;20060;-82
2024/01/26 07:43:21;;;;;;;0.93;0.88;;;;;;;9.98;78.78;97641.75;5055636;28;20045;-83
2024/01/26 07:45:49;;;;;;;0.60;0.60;;;;;;;9.99;78.84;97632.94;5056355;28;20072;-82
2024/01/26 07:48:17;;;;;;;1.15;0.85;;;;;;;10.00;78.36;97639.81;5054781;28;20103;-82
2024/01/26 07:50:46;;;;;;;1.45;0.98;;;;;;;9.99;77.46;97644.22;5054388;28;20041;-82
2024/01/26 07:53:15;;;;;;;0.75;0.60;;;;;;;10.00;78.62;97650.25;5053799;28;20061;-82
2024/01/26 07:55:43;;;;;;;0.93;0.68;;;;;;;10.03;78.88;97642.09;5054597;28;20582;-82
2024/01/26 07:58:11;;;;;;;2.10;0.63;;;;;;;10.03;78.30;97639.50;5065335;28;20048;-82
2024/01/26 08:00:39;;;;;;;1.75;1.40;;;;;;;10.06;78.60;97628.78;5074711;28;20049;-82
2024/01/26 08:03:09;;;;;;;0.65;0.50;;;;;;;10.04;77.04;97626.31;5070148;28;20052;-82
2024/01/26 08:05:38;;;;;;;1.02;0.63;;;;;;;10.02;77.03;97624.84;5076966;28;20045;-82
2024/01/26 08:08:06;;;;;;;0.43;0.43;;;;;;;10.01;76.84;97634.41;5069563;28;20045;-82
2024/01/26 08:10:35;;;;;;;2.10;0.68;;;;;;;10.00;76.24;97630.19;5062038;28;20113;-83
2024/01/26 08:13:04;;;;;;;1.98;0.73;;;;;;;9.98;75.76;97629.53;5059211;28;20049;-82
2024/01/26 08:15:32;;;;;;;0.93;0.55;;;;;;;9.97;75.45;97624.47;5059856;28;20052;-81
2024/01/26 08:18:00;;;;;;;2.08;0.70;;;;;;;9.99;76.39;97622.53;5058980;28;20072;-82
2024/01/26 08:20:28;;;;;;;1.15;0.70;;;;;;;10.00;77.02;97611.94;5057759;28;20418;-81
2024/01/26 08:22:57;;;;;;;0.82;0.82;;;;;;;10.02;76.93;97607.41;5057584;28;20049;-82
2024/01/26 08:25:25;;;;;;;1.58;0.75;;;;;;;10.04;75.90;97622.91;5057532;28;20045;-82
2024/01/26 08:27:55;;;;;;;1.63;0.60;;;;;;;10.02;76.83;97601.38;5057798;28;20490;-82
2024/01/26 08:30:23;;;;;;;5.32;1.00;;;;;;;10.03;76.89;97593.38;5059954;28;20049;-82
2024/01/26 08:32:52;;;;;;;0.70;0.63;;;;;;;10.08;76.45;97608.59;5080518;28;20025;-81
2024/01/26 08:35:20;;;;;;;1.58;0.70;;;;;;;10.09;75.89;97611.03;5080512;28;20049;-81
2024/01/26 08:37:49;;;;;;;1.60;0.90;;;;;;;10.10;76.60;97604.00;5079858;28;20037;-82
2024/01/26 08:40:17;;;;;;;1.00;0.80;;;;;;;10.11;75.75;97605.66;5071325;28;20106;-81
2024/01/26 08:42:45;;;;;;;1.05;0.70;;;;;;;10.13;76.48;97597.69;5064078;28;20075;-81
2024/01/26 08:45:14;;;;;;;1.02;0.85;;;;;;;10.15;75.65;97600.97;5063901;28;20072;-81
2024/01/26 08:47:43;;;;;;;0.68;0.68;;;;;;;10.15;74.92;97601.78;5060602;28;20136;-82
2024/01/26 08:50:11;;;;;;;3.05;0.60;;;;;;;10.17;75.07;97605.06;5076941;28;20048;-81
2024/01/26 08:52:39;;;;;;;1.05;0.68;;;;;;;10.18;74.59;97609.28;5078627;28;20045;-81
2024/01/26 08:55:07;;;;;;;1.13;0.68;;;;;;;10.20;74.15;97598.72;5077847;28;20048;-81
2024/01/26 08:57:35;;;;;;;1.40;0.63;;;;;;;10.25;74.01;97607.69;5077966;28;20040;-81
2024/01/26 09:00:08;;;;;;;1.40;0.70;;;;;;;10.33;74.52;97622.59;5078399;28;20053;-81
2024/01/26 09:02:38;;;;;;;1.10;0.80;;;;;;;10.37;74.24;97623.13;5078300;28;20056;-81
2024/01/26 09:05:07;;;;;;;0.88;0.50;;;;;;;10.43;74.61;97619.88;5078396;28;20049;-81
2024/01/26 09:07:36;;;;;;;0.70;0.60;;;;;;;10.48;74.96;97609.81;5078844;28;20033;-81
2024/01/26 09:10:05;;;;;;;1.05;0.60;;;;;;;10.51;73.49;97612.09;5078537;28;20080;-81
2024/01/26 09:12:33;;;;;;;1.15;0.60;;;;;;;10.54;73.52;97603.13;5078340;28;20053;-81
2024/01/26 09:15:01;;;;;;;1.20;0.95;;;;;;;10.58;73.18;97596.63;5078732;28;20056;-81
2024/01/26 09:17:29;;;;;;;2.95;0.80;;;;;;;10.63;72.60;97589.97;5078253;28;20079;-82
2024/01/26 09:19:59;;;;;;;0.80;0.60;;;;;;;10.67;72.13;97595.69;5078772;28;20071;-82
2024/01/26 09:22:28;;;;;;;2.08;0.73;;;;;;;10.70;73.03;97580.53;5079181;28;20063;-81
2024/01/26 09:24:56;;;;;;;0.70;0.68;;;;;;;10.78;73.40;97587.59;5079181;28;20036;-81
2024/01/26 09:27:25;;;;;;;1.05;0.52;;;;;;;10.86;73.33;97584.97;5078200;28;20048;-82
2024/01/26 09:29:54;;;;;;;1.75;1.00;;;;;;;10.93;72.93;97574.72;5077561;28;20045;-81
2024/01/26 09:32:22;;;;;;;0.43;0.30;;;;;;;10.97;72.59;97567.38;5077378;28;20095;-82
2024/01/26 09:34:50;;;;;;;1.13;0.35;;;;;;;11.02;72.69;97568.56;5063450;28;20053;-81
2024/01/26 09:37:20;;;;;;;0.60;0.40;;;;;;;11.06;71.40;97559.44;5060327;28;20068;-81
2024/01/26 09:39:48;;;;;;;1.63;0.68;;;;;;;11.10;71.93;97559.91;5060599;28;20106;-81
2024/01/26 09:42:17;;;;;;;0.38;0.38;;;;;;;11.17;71.79;97560.06;5059895;28;20049;-81
2024/01/26 09:44:45;;;;;;;0.65;0.65;;;;;;;11.23;72.26;97560.25;5060954;28;20518;-81
2024/01/26 09:47:15;;;;;;;0.57;0.50;;;;;;;11.29;72.63;97553.56;5059046;28;20510;-82
2024/01/26 09:49:51;;;;;;;0.47;0.47;;;;;;;11.36;71.62;97553.72;5059994;28;20099;-80
2024/01/26 09:52:21;;;;;;;0.57;0.40;;;;;;;11.40;70.41;97534.13;5060437;28;20045;-81
2024/01/26 09:54:51;;;;;;;0.52;0.40;;;;;;;11.44;71.67;97535.44;5061236;28;20463;-81
2024/01/26 09:57:20;;;;;;;0.60;0.30;;;;;;;11.45;70.23;97521.38;5068183;28;20049;-82
2024/01/26 09:59:50;;;;;;;0.65;0.65;;;;;;;11.48;70.81;97524.50;5061138;28;20049;-82
2024/01/26 10:02:22;;;;;;;1.60;0.50;;;;;;;11.53;70.35;97519.59;5061487;28;20123;-81
2024/01/26 10:04:50;;;;;;;0.63;0.47;;;;;;;11.55;69.22;97522.84;5060830;28;20114;-81
2024/01/26 10:07:21;;;;;;;0.90;0.43;;;;;;;11.61;69.98;97525.78;5059424;28;20049;-81
2024/01/26 10:09:49;;;;;;;4.00;0.60;;;;;;;11.63;69.13;97524.66;5060217;28;20147;-81
2024/01/26 10:12:21;;;;;;;0.65;0.38;;;;;;;11.68;68.75;97527.56;5061339;22;20400;-80
2024/01/26 10:14:49;;;;;;;0.40;0.40;;;;;;;11.73;68.13;97524.47;5034655;28;20565;-80
2024/01/26 10:17:18;;;;;;;0.50;0.43;;;;;;;11.77;68.51;97523.16;5035005;28;20136;-80
2024/01/26 10:19:45;;;;;;;1.63;0.50;;;;;;;11.82;69.43;97533.91;5034880;28;20049;-80
2024/01/26 10:22:13;;;;;;;0.85;0.43;;;;;;;11.82;68.66;97522.66;5035023;28;20072;-80
2024/01/26 10:24:42;;;;;;;0.70;0.63;;;;;;;11.82;69.30;97525.25;5034805;28;20045;-80
2024/01/26 10:27:10;;;;;;;1.20;0.63;;;;;;;11.81;69.34;97524.47;5035198;28;20104;-79
2024/01/26 10:29:39;;;;;;;1.58;0.57;;;;;;;11.79;68.57;97529.03;5034667;28;20053;-80
2024/01/26 10:32:14;;;;;;;0.88;0.65;;;;;;;11.76;68.30;97521.50;5034755;28;20052;-80
2024/01/26 10:34:44;;;;;;;1.75;0.50;;;;;;;11.74;68.32;97515.63;5034468;28;20052;-80
2024/01/26 10:37:13;;;;;;;0.80;0.60;;;;;;;11.71;68.12;97515.97;5034601;28;20525;-80
2024/01/26 10:39:45;;;;;;;0.77;0.65;;;;;;;11.71;68.64;97515.97;5034781;28;20172;-80
2024/01/26 10:42:13;;;;;;;0.95;0.60;;;;;;;11.70;68.55;97517.78;5034621;28;20491;-80
2024/01/26 10:44:42;;;;;;;0.60;0.60;;;;;;;11.66;69.01;97519.09;5034584;28;20536;-80
2024/01/26 10:47:10;;;;;;;1.00;0.60;;;;;;;11.63;68.77;97514.19;5034760;28;20045;-80
2024/01/26 10:49:38;;;;;;;2.40;0.70;;;;;;;11.62;69.34;97516.97;5034630;28;20140;-80
2024/01/26 10:52:08;;;;;;;1.90;0.63;;;;;;;11.61;69.15;97523.16;5034251;28;20049;-80
2024/01/26 10:54:37;;;;;;;0.88;0.65;;;;;;;11.56;69.15;97505.38;5034187;28;20050;-79
2024/01/26 10:57:07;;;;;;;0.70;0.70;;;;;;;11.54;69.01;97507.34;5034609;28;20056;-80
2024/01/26 10:59:35;;;;;;;3.85;0.93;;;;;;;11.53;69.30;97503.91;5034384;28;20050;-80
2024/01/26 11:02:03;;;;;;;0.90;0.65;;;;;;;11.51;69.49;97511.09;5033914;28;20430;-80
2024/01/26 11:04:31;;;;;;;1.13;0.70;;;;;;;11.50;69.56;97491.19;5034530;28;20140;-80
2024/01/26 11:07:00;;;;;;;1.75;0.77;;;;;;;11.49;69.59;97491.34;5035156;28;20485;-80
2024/01/26 11:09:32;;;;;;;1.50;0.80;;;;;;;11.49;69.92;97491.34;5034911;28;20053;-79
2024/01/26 11:12:00;;;;;;;1.65;0.90;;;;;;;11.50;69.84;97482.50;5034182;28;20055;-80
2024/01/26 11:14:32;;;;;;;0.70;0.70;;;;;;;11.48;69.26;97487.13;5033550;28;20111;-80
2024/01/26 11:17:09;;;;;;;0.82;0.82;;;;;;;11.46;69.96;97481.25;5034127;28;20041;-79
2024/01/26 11:19:37;;;;;;;1.38;0.95;;;;;;;11.44;69.90;97483.19;5033324;28;20054;-80
2024/01/26 11:22:07;;;;;;;3.00;0.85;;;;;;;11.42;70.28;97485.97;5033368;28;20077;-80
2024/01/26 11:24:35;;;;;;;1.17;1.00;;;;;;;11.42;70.40;97480.75;5033779;28;20430;-80
2024/01/26 11:27:04;;;;;;;1.00;0.93;;;;;;;11.40;70.43;97482.69;5033943;28;20085;-80
2024/01/26 11:29:35;;;;;;;0.63;0.63;;;;;;;11.36;70.46;97473.56;5036714;28;20081;-80
2024/01/26 11:32:16;;;;;;;1.55;0.82;;;;;;;11.35;70.85;97469.31;5041436;28;20056;-80
2024/01/26 11:34:44;;;;;;;1.05;0.80;;;;;;;11.32;71.41;97464.41;5033728;28;20551;-79
2024/01/26 11:37:13;;;;;;;2.10;0.90;;;;;;;11.30;71.46;97453.31;5033594;28;20050;-80
2024/01/26 11:39:42;;;;;;;1.90;1.23;;;;;;;11.30;71.63;97458.53;5033766;28;20046;-79
2024/01/26 11:42:11;;;;;;;1.35;1.15;;;;;;;11.28;72.21;97447.44;5037264;28;20049;-80
2024/01/26 11:44:42;;;;;;;1.20;0.80;;;;;;;11.23;71.54;97455.78;5037898;28;20049;-80